createdAt,value
2022-12-31T00:00:19.477Z,55.7
2022-12-31T00:05:16.428Z,55.5
2022-12-31T00:10:16.426Z,55.4
2022-12-31T00:15:19.491Z,55.2
2022-12-31T00:20:19.448Z,55.0
2022-12-31T00:25:19.435Z,54.8
2022-12-31T00:30:16.493Z,54.6
2022-12-31T00:35:19.467Z,54.4
2022-12-31T00:40:19.418Z,54.2
2022-12-31T00:45:19.441Z,54.0
2022-12-31T00:50:19.439Z,53.9
2022-12-31T00:55:16.480Z,53.7
2022-12-31T01:00:19.495Z,53.5
2022-12-31T01:05:19.566Z,53.3
2022-12-31T01:10:19.416Z,53.2
2022-12-31T01:15:16.510Z,53.0
2022-12-31T01:20:16.536Z,52.9
2022-12-31T01:25:16.469Z,52.7
2022-12-31T01:30:19.500Z,52.6
2022-12-31T01:35:16.523Z,52.4
2022-12-31T01:40:16.547Z,52.3
2022-12-31T01:45:19.480Z,52.1
2022-12-31T01:50:19.485Z,51.9
2022-12-31T01:55:19.512Z,51.8
2022-12-31T02:00:19.529Z,51.6
2022-12-31T02:05:19.449Z,51.5
2022-12-31T02:10:19.496Z,51.3
2022-12-31T02:15:19.494Z,51.2
2022-12-31T02:20:16.540Z,51.0
2022-12-31T02:25:16.548Z,50.9
2022-12-31T02:30:19.489Z,50.7
2022-12-31T02:35:19.542Z,50.6
2022-12-31T02:40:19.481Z,50.5
2022-12-31T02:45:19.494Z,50.3
2022-12-31T02:50:16.523Z,50.2
2022-12-31T02:55:19.534Z,50.1
2022-12-31T03:00:19.527Z,50.0
2022-12-31T03:05:19.559Z,49.9
2022-12-31T03:10:19.518Z,49.8
2022-12-31T03:15:16.537Z,49.7
2022-12-31T03:20:16.392Z,49.6
2022-12-31T03:25:16.359Z,49.5
2022-12-31T03:30:19.598Z,49.4
2022-12-31T03:35:19.554Z,49.3
2022-12-31T03:40:19.538Z,49.2
2022-12-31T03:45:19.565Z,49.2
2022-12-31T03:50:19.555Z,49.1
2022-12-31T03:55:19.560Z,49.0
2022-12-31T04:00:19.593Z,48.9
2022-12-31T04:05:16.604Z,48.9
2022-12-31T04:10:19.542Z,48.8
2022-12-31T04:15:16.603Z,48.7
2022-12-31T04:20:16.558Z,48.7
2022-12-31T04:25:16.634Z,48.6
2022-12-31T04:30:19.624Z,48.6
2022-12-31T04:35:19.589Z,48.4
2022-12-31T04:40:19.550Z,48.4
2022-12-31T04:45:19.546Z,48.3
2022-12-31T04:50:19.581Z,48.3
2022-12-31T04:55:19.548Z,48.2
2022-12-31T05:00:18.839Z,48.2
2022-12-31T05:05:18.829Z,48.2
2022-12-31T05:10:18.828Z,48.2
2022-12-31T05:15:18.816Z,48.1
2022-12-31T05:20:18.855Z,48.1
2022-12-31T05:25:19.154Z,48.0
2022-12-31T05:30:18.927Z,48.0
2022-12-31T05:35:15.880Z,48.0
2022-12-31T05:40:18.867Z,48.0
2022-12-31T05:45:18.916Z,48.0
2022-12-31T05:50:18.834Z,48.1
2022-12-31T05:55:18.806Z,48.1
2022-12-31T06:00:18.852Z,48.1
2022-12-31T06:05:19.641Z,48.1
2022-12-31T06:10:15.895Z,48.0
2022-12-31T06:15:15.912Z,47.9
2022-12-31T06:20:15.920Z,47.8
2022-12-31T06:25:18.937Z,47.7
2022-12-31T06:30:18.877Z,47.6
2022-12-31T06:35:18.843Z,47.5
2022-12-31T06:40:18.825Z,47.4
2022-12-31T06:45:18.826Z,47.3
2022-12-31T06:50:15.902Z,47.2
2022-12-31T06:55:15.952Z,47.1
2022-12-31T07:00:18.887Z,47.0
2022-12-31T07:05:15.924Z,47.0
2022-12-31T07:10:15.953Z,47.0
2022-12-31T07:15:18.893Z,46.9
2022-12-31T07:20:18.873Z,46.9
2022-12-31T07:25:18.950Z,46.9
2022-12-31T07:30:18.879Z,46.8
2022-12-31T07:35:18.924Z,46.8
2022-12-31T07:40:18.826Z,46.9
2022-12-31T07:45:18.923Z,46.8
2022-12-31T07:50:18.899Z,46.8
2022-12-31T07:55:18.891Z,46.8
2022-12-31T08:00:18.992Z,46.8
2022-12-31T08:05:18.899Z,46.9
2022-12-31T08:10:18.221Z,47.0
2022-12-31T08:15:16.015Z,47.2
2022-12-31T08:20:15.950Z,47.5
2022-12-31T08:25:15.975Z,47.7
2022-12-31T08:30:15.956Z,48.0
2022-12-31T08:35:15.974Z,48.2
2022-12-31T08:40:15.917Z,48.3
2022-12-31T08:45:15.907Z,48.4
2022-12-31T08:50:15.816Z,48.6
2022-12-31T08:55:18.964Z,48.7
2022-12-31T09:00:18.877Z,48.7
2022-12-31T09:05:18.891Z,48.8
2022-12-31T09:10:18.905Z,49.0
2022-12-31T09:15:18.936Z,49.2
2022-12-31T09:20:18.905Z,49.2
2022-12-31T09:25:15.939Z,49.3
2022-12-31T09:30:18.952Z,49.4
2022-12-31T09:35:18.981Z,49.5
2022-12-31T09:40:16.004Z,49.6
2022-12-31T09:45:16.008Z,49.7
2022-12-31T09:50:16.133Z,49.9
2022-12-31T09:55:19.009Z,50.0
2022-12-31T10:00:19.105Z,50.1
2022-12-31T10:05:18.938Z,50.1
2022-12-31T10:10:19.107Z,50.2
2022-12-31T10:15:18.952Z,50.2
2022-12-31T10:20:19.003Z,50.3
2022-12-31T10:25:16.049Z,50.3
2022-12-31T10:30:16.043Z,50.3
2022-12-31T10:35:16.013Z,50.3
2022-12-31T10:40:16.028Z,50.4
2022-12-31T10:45:15.984Z,50.4
2022-12-31T10:50:19.103Z,50.5
2022-12-31T10:55:16.022Z,50.6
2022-12-31T11:00:16.103Z,50.8
2022-12-31T11:05:16.081Z,51.0
2022-12-31T11:10:19.019Z,51.3
2022-12-31T11:15:16.043Z,51.4
2022-12-31T11:20:16.118Z,51.6
2022-12-31T11:25:16.029Z,51.7
2022-12-31T11:30:19.023Z,51.8
2022-12-31T11:35:16.071Z,51.9
2022-12-31T11:40:16.138Z,51.9
2022-12-31T11:45:16.070Z,52.0
2022-12-31T11:50:16.087Z,52.2
2022-12-31T11:55:19.083Z,52.3
2022-12-31T12:00:19.017Z,52.4
2022-12-31T12:05:16.051Z,52.5
2022-12-31T12:10:19.086Z,52.6
2022-12-31T12:15:19.104Z,52.6
2022-12-31T12:20:19.027Z,52.8
2022-12-31T12:25:16.063Z,52.8
2022-12-31T12:30:16.072Z,52.9
2022-12-31T12:35:16.066Z,53.0
2022-12-31T12:40:16.091Z,53.0
2022-12-31T12:45:16.063Z,53.0
2022-12-31T12:50:19.109Z,53.0
2022-12-31T12:55:19.145Z,53.0
2022-12-31T13:00:19.039Z,53.0
2022-12-31T13:05:16.135Z,53.0
2022-12-31T13:10:16.079Z,53.0
2022-12-31T13:15:16.072Z,53.0
2022-12-31T13:20:16.127Z,53.0
2022-12-31T13:25:16.045Z,53.1
2022-12-31T13:30:19.181Z,53.0
2022-12-31T13:35:19.308Z,53.0
2022-12-31T13:40:19.053Z,53.1
2022-12-31T13:45:16.117Z,53.0
2022-12-31T13:50:19.132Z,53.1
2022-12-31T13:55:19.204Z,53.1
2022-12-31T14:00:16.142Z,53.1
2022-12-31T14:05:19.066Z,53.2
2022-12-31T14:10:19.040Z,53.2
2022-12-31T14:15:19.073Z,53.3
2022-12-31T14:20:19.071Z,53.3
2022-12-31T14:25:16.189Z,53.3
2022-12-31T14:30:16.175Z,53.3
2022-12-31T14:35:16.170Z,53.2
2022-12-31T14:40:19.135Z,53.2
2022-12-31T14:45:16.208Z,53.2
2022-12-31T14:50:19.114Z,53.2
2022-12-31T14:55:16.192Z,53.3
2022-12-31T15:00:16.121Z,53.3
2022-12-31T15:05:19.088Z,53.3
2022-12-31T15:10:19.088Z,53.3
2022-12-31T15:15:19.093Z,53.4
2022-12-31T15:20:19.067Z,53.4
2022-12-31T15:25:16.125Z,53.4
2022-12-31T15:30:19.216Z,53.4
2022-12-31T15:35:16.160Z,53.5
2022-12-31T15:40:16.150Z,53.5
2022-12-31T15:45:16.148Z,53.5
2022-12-31T15:50:16.241Z,53.6
2022-12-31T15:55:19.181Z,53.7
2022-12-31T16:00:19.121Z,53.7
2022-12-31T16:05:19.135Z,53.7
2022-12-31T16:10:16.186Z,53.7
2022-12-31T16:15:16.211Z,53.8
2022-12-31T16:20:16.183Z,53.8
2022-12-31T16:25:30.775Z,53.9
2022-12-31T16:30:16.237Z,53.9
2022-12-31T16:35:22.961Z,54.0
2022-12-31T16:40:16.186Z,54.0
2022-12-31T16:45:16.204Z,54.0
2022-12-31T16:50:16.196Z,54.1
2022-12-31T16:55:16.210Z,54.1
2022-12-31T17:00:19.209Z,54.1
2022-12-31T17:05:16.188Z,54.1
2022-12-31T17:10:19.195Z,54.1
2022-12-31T17:15:16.192Z,54.1
2022-12-31T17:20:19.176Z,54.1
2022-12-31T17:25:19.228Z,54.1
2022-12-31T17:30:19.151Z,54.1
2022-12-31T17:35:19.194Z,54.1
2022-12-31T17:40:50.009Z,54.1
2022-12-31T17:45:19.174Z,54.1
2022-12-31T17:50:19.190Z,54.1
2022-12-31T17:55:19.159Z,54.1
2022-12-31T18:00:16.127Z,54.1
2022-12-31T18:05:19.259Z,54.1
2022-12-31T18:10:19.185Z,54.2
2022-12-31T18:15:19.201Z,54.2
2022-12-31T18:20:19.259Z,54.2
2022-12-31T18:25:19.237Z,54.2
2022-12-31T18:30:19.163Z,54.2
2022-12-31T18:36:07.745Z,54.2
2022-12-31T18:40:19.216Z,54.3
2022-12-31T18:45:16.240Z,54.2
2022-12-31T18:50:19.393Z,54.3
2022-12-31T18:55:19.224Z,54.3
2022-12-31T19:00:19.200Z,54.4
2022-12-31T19:05:19.252Z,54.4
2022-12-31T19:10:19.206Z,54.4
2022-12-31T19:15:19.277Z,54.5
2022-12-31T19:20:19.198Z,54.4
2022-12-31T19:25:19.204Z,54.5
2022-12-31T19:30:16.271Z,54.5
2022-12-31T19:35:19.254Z,54.5
2022-12-31T19:40:19.206Z,54.5
2022-12-31T19:45:16.314Z,54.5
2022-12-31T19:50:16.288Z,54.5
2022-12-31T19:55:16.225Z,54.5
2022-12-31T20:00:16.299Z,54.6
2022-12-31T20:05:16.260Z,54.6
2022-12-31T20:10:19.291Z,54.6
2022-12-31T20:15:16.273Z,54.5
2022-12-31T20:20:19.290Z,54.6
2022-12-31T20:25:19.310Z,54.5
2022-12-31T20:30:16.326Z,54.5
2022-12-31T20:35:16.300Z,54.5
2022-12-31T20:40:19.275Z,54.5
2022-12-31T20:45:19.281Z,54.5
2022-12-31T20:50:19.275Z,54.5
2022-12-31T20:55:19.274Z,54.5
2022-12-31T21:00:16.312Z,54.5
2022-12-31T21:05:16.560Z,54.6
2022-12-31T21:10:16.324Z,54.6
2022-12-31T21:15:19.317Z,54.6
2022-12-31T21:20:19.258Z,54.6
2022-12-31T21:25:19.288Z,54.6
2022-12-31T21:30:20.039Z,54.6
2022-12-31T21:35:57.519Z,54.6
2022-12-31T21:40:19.299Z,54.6
2022-12-31T21:45:19.288Z,54.7
2022-12-31T21:50:19.310Z,54.6
2022-12-31T21:55:16.363Z,54.6
2022-12-31T22:00:41.029Z,54.6
2022-12-31T22:05:23.200Z,54.7
2022-12-31T22:10:16.366Z,54.7
2022-12-31T22:15:19.332Z,54.8
2022-12-31T22:20:27.280Z,54.8
2022-12-31T22:25:19.368Z,54.9
2022-12-31T22:30:19.318Z,54.9
2022-12-31T22:35:16.273Z,55.0
2022-12-31T22:40:19.363Z,55.0
2022-12-31T22:45:19.374Z,55.0
2022-12-31T22:50:19.363Z,55.0
2022-12-31T22:55:16.385Z,55.0
2022-12-31T23:00:16.393Z,55.0
2022-12-31T23:05:16.589Z,54.9
2022-12-31T23:10:16.199Z,54.9
2022-12-31T23:15:19.347Z,54.9
2022-12-31T23:20:16.178Z,54.9
2022-12-31T23:25:19.392Z,54.9
2022-12-31T23:30:19.293Z,54.9
2022-12-31T23:35:19.323Z,55.0
2022-12-31T23:40:21.920Z,54.9
2022-12-31T23:45:19.355Z,55.0
2022-12-31T23:50:19.317Z,55.0
2022-12-31T23:55:16.208Z,55.0
